createdAt,value
2022-07-31T00:00:01.446Z,0.7
2022-07-31T00:01:11.178Z,0.8
2022-07-31T00:02:20.927Z,0.9
2022-07-31T00:03:29.881Z,0.7
2022-07-31T00:04:39.560Z,0.8
2022-07-31T00:05:49.246Z,0.7
2022-07-31T00:06:56.964Z,0.6
2022-07-31T00:08:06.720Z,1
2022-07-31T00:09:20.539Z,0.9
2022-07-31T00:10:27.152Z,0.8
2022-07-31T00:11:36.976Z,0.8
2022-07-31T00:12:46.784Z,0.9
2022-07-31T00:13:58.556Z,0.9
2022-07-31T00:15:06.178Z,1
2022-07-31T00:16:15.868Z,1.1
2022-07-31T00:17:25.572Z,1
2022-07-31T00:18:35.371Z,1.3
2022-07-31T00:19:45.197Z,1.4
2022-07-31T00:20:54.977Z,1
2022-07-31T00:22:04.717Z,1
2022-07-31T00:23:14.480Z,1
2022-07-31T00:24:25.207Z,1
2022-07-31T00:25:32.905Z,0.7
2022-07-31T00:26:41.582Z,0.7
2022-07-31T00:27:51.343Z,0.7
2022-07-31T00:29:01.104Z,0.9
2022-07-31T00:30:10.903Z,0.9
2022-07-31T00:31:19.683Z,0.8
2022-07-31T00:32:28.418Z,0.9
2022-07-31T00:33:38.181Z,1
2022-07-31T00:34:45.927Z,1.1
2022-07-31T00:35:55.652Z,0.8
2022-07-31T00:37:04.682Z,1
2022-07-31T00:38:29.584Z,1
2022-07-31T00:39:23.831Z,0.7
2022-07-31T00:40:33.581Z,0.9
2022-07-31T00:41:43.371Z,0.9
2022-07-31T00:42:53.135Z,0.8
2022-07-31T00:44:02.869Z,0.8
2022-07-31T00:45:13.919Z,0.8
2022-07-31T00:46:23.248Z,1
2022-07-31T00:47:31.966Z,0.8
2022-07-31T00:48:41.782Z,0.9
2022-07-31T00:49:51.542Z,1.2
2022-07-31T00:51:00.287Z,0.8
2022-07-31T00:52:10.111Z,0.9
2022-07-31T00:53:18.964Z,0.9
2022-07-31T00:54:27.666Z,0.7
2022-07-31T00:55:41.798Z,1
2022-07-31T00:56:47.059Z,1
2022-07-31T00:57:56.824Z,0.7
2022-07-31T00:59:05.644Z,0.9
2022-07-31T01:00:13.421Z,0.9
2022-07-31T01:01:23.308Z,0.9
2022-07-31T01:02:31.949Z,0.9
2022-07-31T01:03:41.683Z,0.7
2022-07-31T01:04:51.382Z,0.8
2022-07-31T01:05:59.054Z,0.8
2022-07-31T01:07:08.754Z,1.1
2022-07-31T01:08:18.505Z,0.8
2022-07-31T01:09:28.347Z,0.8
2022-07-31T01:10:38.017Z,0.6
2022-07-31T01:11:47.812Z,0.8
2022-07-31T01:12:58.549Z,0.7
2022-07-31T01:14:08.252Z,0.9
2022-07-31T01:15:15.925Z,0.8
2022-07-31T01:16:25.622Z,0.6
2022-07-31T01:17:34.346Z,0.9
2022-07-31T01:18:43.107Z,0.9
2022-07-31T01:19:52.866Z,0.7
2022-07-31T01:21:01.750Z,0.9
2022-07-31T01:22:32.809Z,0.6
2022-07-31T01:23:22.303Z,0.7
2022-07-31T01:24:29.988Z,0.8
2022-07-31T01:25:39.665Z,0.8
2022-07-31T01:26:48.323Z,0.7
2022-07-31T01:27:58.197Z,0.9
2022-07-31T01:29:07.960Z,0.5
2022-07-31T01:30:17.802Z,0.9
2022-07-31T01:31:27.833Z,0.7
2022-07-31T01:32:37.297Z,0.7
2022-07-31T01:33:46.096Z,0.8
2022-07-31T01:34:55.765Z,0.6
2022-07-31T01:36:05.448Z,0.9
2022-07-31T01:37:13.125Z,1.1
2022-07-31T01:38:22.909Z,0.8
2022-07-31T01:39:33.661Z,0.6
2022-07-31T01:40:43.409Z,0.8
2022-07-31T01:41:53.221Z,0.8
2022-07-31T01:43:02.950Z,0.8
2022-07-31T01:44:13.695Z,0.9
2022-07-31T01:45:21.427Z,0.9
2022-07-31T01:46:30.159Z,1.1
2022-07-31T01:47:39.897Z,2.2
2022-07-31T01:48:48.655Z,2
2022-07-31T01:49:58.395Z,1.8
2022-07-31T01:51:08.184Z,1.6
2022-07-31T01:52:16.975Z,1
2022-07-31T01:53:26.709Z,1.1
2022-07-31T01:54:35.369Z,0.8
2022-07-31T01:55:56.916Z,1
2022-07-31T01:56:55.868Z,0.8
2022-07-31T01:58:04.615Z,0.8
2022-07-31T01:59:20.250Z,1
2022-07-31T02:00:33.991Z,0.5
2022-07-31T02:01:33.859Z,0.7
2022-07-31T02:02:44.538Z,0.7
2022-07-31T02:03:56.121Z,0.8
2022-07-31T02:05:02.877Z,1.1
2022-07-31T02:06:12.635Z,0.7
2022-07-31T02:07:20.332Z,1.1
2022-07-31T02:08:30.123Z,1
2022-07-31T02:09:50.954Z,0.9
2022-07-31T02:10:48.632Z,0.8
2022-07-31T02:11:58.330Z,1
2022-07-31T02:13:08.067Z,0.9
2022-07-31T02:14:16.791Z,0.7
2022-07-31T02:15:26.497Z,0.7
2022-07-31T02:16:34.171Z,0.7
2022-07-31T02:17:43.902Z,0.9
2022-07-31T02:18:53.639Z,0.8
2022-07-31T02:20:03.390Z,0.7
2022-07-31T02:21:12.110Z,0.6
2022-07-31T02:22:21.847Z,0.6
2022-07-31T02:23:31.598Z,0.9
2022-07-31T02:24:41.359Z,0.8
2022-07-31T02:25:51.129Z,1.2
2022-07-31T02:27:00.891Z,0.9
2022-07-31T02:28:10.633Z,1.6
2022-07-31T02:29:20.513Z,0.9
2022-07-31T02:30:38.711Z,0.9
2022-07-31T02:31:39.826Z,0.8
2022-07-31T02:32:49.613Z,0.9
2022-07-31T02:33:58.352Z,0.7
2022-07-31T02:35:08.107Z,0.7
2022-07-31T02:36:17.847Z,0.6
2022-07-31T02:37:27.629Z,0.8
2022-07-31T02:38:36.359Z,0.7
2022-07-31T02:39:46.129Z,0.6
2022-07-31T02:40:55.892Z,0.8
2022-07-31T02:42:03.888Z,0.7
2022-07-31T02:43:13.422Z,0.5
2022-07-31T02:44:27.078Z,0.7
2022-07-31T02:45:33.960Z,0.8
2022-07-31T02:46:43.649Z,0.8
2022-07-31T02:47:53.438Z,1
2022-07-31T02:49:03.464Z,0.6
2022-07-31T02:50:13.163Z,0.6
2022-07-31T02:51:22.938Z,0.8
2022-07-31T02:52:32.699Z,0.5
2022-07-31T02:53:42.445Z,0.7
2022-07-31T02:54:50.223Z,0.6
2022-07-31T02:56:00.063Z,0.8
2022-07-31T02:57:09.843Z,0.7
2022-07-31T02:58:19.667Z,0.9
2022-07-31T02:59:29.437Z,0.6
2022-07-31T03:00:38.380Z,0.6
2022-07-31T03:01:48.142Z,0.6
2022-07-31T03:02:57.901Z,0.9
2022-07-31T03:04:07.643Z,0.8
2022-07-31T03:05:17.410Z,0.8
2022-07-31T03:06:27.194Z,0.9
2022-07-31T03:07:35.951Z,0.7
2022-07-31T03:08:45.815Z,0.8
2022-07-31T03:09:55.543Z,0.8
2022-07-31T03:11:05.314Z,0.5
2022-07-31T03:12:15.095Z,0.7
2022-07-31T03:13:22.872Z,0.8
2022-07-31T03:14:32.792Z,0.8
2022-07-31T03:15:42.364Z,0.8
2022-07-31T03:16:53.086Z,0.7
2022-07-31T03:18:06.180Z,0.6
2022-07-31T03:19:13.651Z,0.7
2022-07-31T03:20:22.433Z,0.6
2022-07-31T03:21:32.207Z,0.6
2022-07-31T03:22:40.960Z,0.6
2022-07-31T03:23:50.731Z,0.6
2022-07-31T03:25:00.439Z,0.8
2022-07-31T03:26:09.194Z,0.9
2022-07-31T03:27:18.939Z,0.8
2022-07-31T03:28:27.674Z,0.9
2022-07-31T03:29:39.434Z,0.7
2022-07-31T03:30:48.253Z,0.5
2022-07-31T03:31:58.041Z,0.8
2022-07-31T03:33:07.828Z,0.6
2022-07-31T03:34:17.576Z,0.9
2022-07-31T03:35:26.350Z,0.7
2022-07-31T03:36:36.186Z,0.8
2022-07-31T03:37:45.985Z,0.8
2022-07-31T03:38:55.783Z,0.6
2022-07-31T03:40:05.553Z,0.9
2022-07-31T03:41:14.334Z,0.6
2022-07-31T03:42:24.050Z,0.6
2022-07-31T03:43:43.909Z,0.9
2022-07-31T03:44:42.540Z,0.7
2022-07-31T03:45:52.426Z,0.9
2022-07-31T03:47:01.224Z,0.9
2022-07-31T03:48:10.961Z,0.8
2022-07-31T03:49:20.819Z,0.8
2022-07-31T03:50:28.482Z,0.9
2022-07-31T03:51:37.256Z,0.8
2022-07-31T03:52:47.156Z,0.8
2022-07-31T03:53:55.920Z,0.7
2022-07-31T03:55:05.786Z,0.8
2022-07-31T03:56:14.524Z,0.9
2022-07-31T03:57:26.948Z,0.7
2022-07-31T03:58:35.045Z,0.8
2022-07-31T03:59:47.879Z,0.7
2022-07-31T04:00:56.543Z,0.9
2022-07-31T04:02:06.784Z,0.6
2022-07-31T04:03:15.133Z,0.8
2022-07-31T04:04:25.223Z,0.8
2022-07-31T04:05:33.976Z,0.5
2022-07-31T04:06:43.746Z,0.5
2022-07-31T04:07:53.448Z,0.7
2022-07-31T04:09:07.863Z,0.8
2022-07-31T04:10:14.063Z,1
2022-07-31T04:11:22.872Z,0.7
2022-07-31T04:12:31.685Z,0.7
2022-07-31T04:13:41.454Z,0.8
2022-07-31T04:14:51.249Z,0.8
2022-07-31T04:16:01.051Z,0.8
2022-07-31T04:17:10.781Z,0.8
2022-07-31T04:18:19.522Z,0.9
2022-07-31T04:19:29.296Z,0.7
2022-07-31T04:20:39.069Z,0.9
2022-07-31T04:21:48.843Z,0.8
2022-07-31T04:22:58.583Z,0.7
2022-07-31T04:24:08.332Z,1
2022-07-31T04:25:17.112Z,0.7
2022-07-31T04:26:26.851Z,0.7
2022-07-31T04:27:48.148Z,0.6
2022-07-31T04:28:47.366Z,0.7
2022-07-31T04:29:57.114Z,0.8
2022-07-31T04:31:06.829Z,0.7
2022-07-31T04:32:15.653Z,0.9
2022-07-31T04:33:24.337Z,0.8
2022-07-31T04:34:33.119Z,1
2022-07-31T04:35:42.803Z,0.8
2022-07-31T04:36:52.589Z,0.9
2022-07-31T04:38:01.328Z,0.8
2022-07-31T04:39:11.127Z,0.7
2022-07-31T04:40:19.878Z,0.7
2022-07-31T04:41:29.628Z,0.7
2022-07-31T04:42:39.399Z,0.6
2022-07-31T04:43:49.183Z,0.8
2022-07-31T04:44:58.992Z,0.8
2022-07-31T04:46:16.919Z,0.6
2022-07-31T04:47:19.483Z,0.9
2022-07-31T04:48:29.225Z,0.7
2022-07-31T04:49:39.148Z,0.5
2022-07-31T04:50:48.853Z,0.8
2022-07-31T04:51:58.592Z,0.8
2022-07-31T04:53:07.361Z,0.6
2022-07-31T04:54:17.101Z,0.7
2022-07-31T04:55:25.850Z,0.8
2022-07-31T04:56:34.570Z,0.9
2022-07-31T04:57:44.432Z,0.8
2022-07-31T04:58:53.187Z,0.7
2022-07-31T05:00:01.921Z,0.9
2022-07-31T05:01:11.667Z,0.6
2022-07-31T05:02:21.434Z,0.8
2022-07-31T05:03:30.176Z,0.6
2022-07-31T05:04:39.955Z,0.7
2022-07-31T05:05:47.704Z,0.6
2022-07-31T05:06:57.518Z,0.8
2022-07-31T05:08:07.392Z,0.7
2022-07-31T05:09:19.299Z,0.6
2022-07-31T05:10:28.927Z,0.7
2022-07-31T05:11:38.682Z,0.7
2022-07-31T05:12:48.465Z,0.7
2022-07-31T05:13:58.234Z,0.7
2022-07-31T05:15:07.011Z,0.6
2022-07-31T05:16:16.757Z,0.6
2022-07-31T05:17:26.491Z,0.9
2022-07-31T05:18:36.295Z,0.7
2022-07-31T05:19:46.143Z,0.8
2022-07-31T05:20:55.916Z,0.6
2022-07-31T05:22:05.930Z,0.8
2022-07-31T05:23:14.332Z,0.4
2022-07-31T05:24:32.833Z,0.6
2022-07-31T05:25:34.759Z,0.6
2022-07-31T05:26:44.540Z,0.6
2022-07-31T05:27:54.260Z,0.6
2022-07-31T05:29:03.987Z,0.5
2022-07-31T05:30:12.788Z,0.6
2022-07-31T05:31:22.567Z,0.6
2022-07-31T05:32:32.322Z,0.7
2022-07-31T05:33:42.135Z,0.6
2022-07-31T05:34:51.971Z,0.6
2022-07-31T05:36:00.811Z,0.8
2022-07-31T05:37:10.567Z,0.5
2022-07-31T05:38:20.334Z,0.8
2022-07-31T05:39:28.066Z,0.3
2022-07-31T05:40:37.854Z,0.6
2022-07-31T05:41:47.629Z,0.5
2022-07-31T05:42:55.401Z,0.5
2022-07-31T05:44:05.183Z,0.4
2022-07-31T05:45:13.971Z,0.5
2022-07-31T05:46:23.719Z,0.7
2022-07-31T05:47:39.749Z,0.5
2022-07-31T05:48:43.193Z,0.5
2022-07-31T05:49:52.959Z,0.5
2022-07-31T05:51:05.531Z,0.5
2022-07-31T05:52:13.366Z,0.4
2022-07-31T05:53:23.107Z,0.6
2022-07-31T05:54:32.907Z,0.5
2022-07-31T05:55:41.691Z,0.8
2022-07-31T05:56:51.429Z,0.7
2022-07-31T05:58:01.201Z,0.4
2022-07-31T05:59:10.988Z,0.5
2022-07-31T06:00:20.794Z,0.4
2022-07-31T06:01:29.647Z,0.6
2022-07-31T06:02:39.338Z,0.7
2022-07-31T06:03:50.588Z,0.5
2022-07-31T06:04:59.878Z,0.4
2022-07-31T06:06:10.803Z,0.7
2022-07-31T06:07:21.594Z,0.3
2022-07-31T06:08:31.418Z,0.4
2022-07-31T06:09:41.183Z,0.5
2022-07-31T06:10:49.911Z,0.5
2022-07-31T06:12:00.001Z,0.5
2022-07-31T06:13:09.558Z,0.7
2022-07-31T06:14:19.296Z,0.6
2022-07-31T06:15:32.078Z,0.5
2022-07-31T06:16:37.752Z,0.4
2022-07-31T06:17:47.483Z,0.6
2022-07-31T06:18:57.202Z,0.4
2022-07-31T06:20:05.983Z,0.7
2022-07-31T06:22:20.324Z,0.4
2022-07-31T06:23:32.078Z,0.5
2022-07-31T06:24:42.634Z,0.5
2022-07-31T06:25:50.620Z,0.4
2022-07-31T06:26:59.359Z,0.4
2022-07-31T06:28:10.457Z,0.7
2022-07-31T06:29:19.904Z,0.6
2022-07-31T06:30:30.672Z,1.2
2022-07-31T06:31:40.410Z,1.2
2022-07-31T06:32:50.203Z,1.1
2022-07-31T06:33:59.989Z,0.7
2022-07-31T06:35:09.835Z,1
2022-07-31T06:36:18.645Z,0.6
2022-07-31T06:37:27.435Z,0.7
2022-07-31T06:38:36.213Z,0.5
2022-07-31T06:39:54.937Z,0.5
2022-07-31T06:40:56.696Z,0.6
2022-07-31T06:42:05.756Z,0.7
2022-07-31T06:43:15.153Z,0.5
2022-07-31T06:44:24.858Z,0.8
2022-07-31T06:45:51.049Z,0.8
2022-07-31T06:46:48.599Z,1
2022-07-31T06:47:54.075Z,1.7
2022-07-31T06:49:08.376Z,1
2022-07-31T06:50:14.697Z,0.8
2022-07-31T06:51:32.267Z,0.3
2022-07-31T06:52:35.208Z,0.5
2022-07-31T06:53:44.954Z,0.4
2022-07-31T06:54:54.727Z,0.3
2022-07-31T06:56:04.500Z,0.4
2022-07-31T06:57:14.287Z,0.3
2022-07-31T06:58:24.071Z,0.5
2022-07-31T06:59:39.547Z,0.5
2022-07-31T07:00:43.603Z,0.3
2022-07-31T07:01:53.425Z,0.5
2022-07-31T07:03:02.073Z,0.4
2022-07-31T07:04:10.870Z,0.5
2022-07-31T07:05:20.603Z,0.3
2022-07-31T07:06:29.339Z,0.3
2022-07-31T07:07:39.058Z,0.4
2022-07-31T07:08:48.862Z,0.4
2022-07-31T07:09:57.589Z,0.5
2022-07-31T07:11:10.330Z,0.6
2022-07-31T07:12:17.173Z,0.4
2022-07-31T07:13:45.421Z,0.3
2022-07-31T07:14:37.519Z,0.3
2022-07-31T07:15:46.289Z,0.4
2022-07-31T07:16:56.026Z,0.4
2022-07-31T07:18:05.804Z,0.5
2022-07-31T07:19:13.523Z,0.4
2022-07-31T07:20:23.370Z,0.3
2022-07-31T07:21:32.106Z,0.5
2022-07-31T07:22:40.845Z,0.4
2022-07-31T07:23:50.579Z,0.6
2022-07-31T07:24:59.367Z,0.5
2022-07-31T07:26:09.120Z,0.4
2022-07-31T07:27:18.942Z,0.3
2022-07-31T07:28:30.127Z,0.3
2022-07-31T07:29:39.609Z,0.4
2022-07-31T07:30:48.486Z,0.3
2022-07-31T07:31:58.219Z,0.3
2022-07-31T07:33:08.006Z,0.4
2022-07-31T07:34:17.751Z,0.4
2022-07-31T07:35:27.670Z,0.2
2022-07-31T07:36:37.272Z,0.4
2022-07-31T07:37:47.066Z,0.4
2022-07-31T07:38:56.881Z,0.4
2022-07-31T07:40:06.665Z,0.6
2022-07-31T07:41:18.406Z,0.7
2022-07-31T07:42:27.200Z,0.3
2022-07-31T07:43:36.970Z,0.5
2022-07-31T07:44:47.741Z,0.5
2022-07-31T07:45:57.433Z,0.5
2022-07-31T07:47:06.171Z,0.3
2022-07-31T07:48:15.974Z,0.4
2022-07-31T07:49:24.804Z,0.4
2022-07-31T07:50:34.496Z,0.4
2022-07-31T07:51:59.793Z,0.5
2022-07-31T07:52:53.994Z,0.7
2022-07-31T07:54:02.760Z,0.4
2022-07-31T07:55:12.581Z,0.3
2022-07-31T07:56:22.359Z,0.3
2022-07-31T07:57:32.094Z,0.3
2022-07-31T07:58:41.842Z,0.4
2022-07-31T07:59:51.523Z,0.5
2022-07-31T08:01:01.373Z,0.4
2022-07-31T08:02:10.087Z,0.4
2022-07-31T08:03:47.910Z,0.4
2022-07-31T08:04:30.601Z,0.8
2022-07-31T08:05:40.378Z,0.4
2022-07-31T08:06:50.121Z,0.4
2022-07-31T08:07:58.900Z,0.7
2022-07-31T08:09:08.689Z,0.5
2022-07-31T08:10:17.448Z,0.3
2022-07-31T08:11:27.202Z,0.3
2022-07-31T08:12:37.117Z,0.2
2022-07-31T08:13:50.422Z,0.3
2022-07-31T08:14:57.650Z,0.4
2022-07-31T08:16:06.534Z,0.3
2022-07-31T08:17:15.236Z,0.4
2022-07-31T08:18:27.192Z,0.3
2022-07-31T08:19:35.870Z,0.3
2022-07-31T08:20:45.642Z,0.5
2022-07-31T08:21:55.457Z,0.5
2022-07-31T08:23:04.205Z,0.4
2022-07-31T08:24:13.976Z,0.5
2022-07-31T08:25:22.738Z,0.3
2022-07-31T08:26:31.448Z,0.6
2022-07-31T08:27:41.169Z,0.3
2022-07-31T08:28:51.248Z,0.3
2022-07-31T08:30:00.786Z,0.3
2022-07-31T08:31:10.629Z,0.4
2022-07-31T08:32:20.479Z,0.3
2022-07-31T08:33:30.271Z,0.3
2022-07-31T08:34:42.009Z,0.3
2022-07-31T08:35:51.005Z,0.5
2022-07-31T08:37:01.090Z,0.3
2022-07-31T08:38:10.363Z,0.5
2022-07-31T08:39:21.248Z,0.4
2022-07-31T08:40:31.352Z,0.3
2022-07-31T08:41:40.676Z,0.5
2022-07-31T08:42:50.467Z,0.3
2022-07-31T08:44:04.002Z,0.2
2022-07-31T08:45:10.064Z,0.2
2022-07-31T08:46:19.928Z,0.2
2022-07-31T08:47:28.701Z,0.3
2022-07-31T08:48:37.512Z,0.2
2022-07-31T08:49:47.235Z,0.2
2022-07-31T08:50:56.958Z,0.2
2022-07-31T08:52:07.000Z,0.2
2022-07-31T08:53:16.502Z,0.3
2022-07-31T08:54:26.357Z,0.1
2022-07-31T08:55:55.812Z,0.3
2022-07-31T08:56:46.811Z,0.4
2022-07-31T08:57:55.529Z,0.2
2022-07-31T08:59:05.305Z,0.2
2022-07-31T09:00:14.062Z,0.3
2022-07-31T09:01:22.826Z,0.2
2022-07-31T09:02:31.583Z,0.5
2022-07-31T09:03:41.390Z,0.3
2022-07-31T09:04:54.459Z,0.3
2022-07-31T09:06:04.280Z,0.3
2022-07-31T09:07:13.100Z,0.3
2022-07-31T09:08:22.839Z,0.3
2022-07-31T09:09:45.223Z,0.4
2022-07-31T09:10:49.188Z,0.4
2022-07-31T09:11:54.248Z,0.4
2022-07-31T09:13:02.072Z,0.1
2022-07-31T09:14:11.845Z,0.6
2022-07-31T09:15:21.615Z,0.2
2022-07-31T09:16:31.533Z,0.2
2022-07-31T09:17:41.266Z,0.1
2022-07-31T09:18:52.005Z,0.4
2022-07-31T09:19:59.734Z,0.2
2022-07-31T09:21:09.471Z,0.3
2022-07-31T09:22:19.246Z,0.4
2022-07-31T09:23:28.183Z,0.3
2022-07-31T09:24:39.506Z,0.1
2022-07-31T09:25:48.748Z,0.3
2022-07-31T09:26:59.471Z,0.3
2022-07-31T09:28:09.268Z,0.3
2022-07-31T09:29:19.027Z,0.3
2022-07-31T09:30:28.746Z,0.4
2022-07-31T09:31:37.525Z,0.2
2022-07-31T09:32:46.293Z,0.4
2022-07-31T09:33:56.032Z,0.5
2022-07-31T09:35:04.928Z,0.3
2022-07-31T09:36:13.671Z,0.3
2022-07-31T09:37:23.466Z,0.2
2022-07-31T09:38:32.263Z,0.3
2022-07-31T09:39:45.900Z,0.2
2022-07-31T09:40:55.582Z,0.3
2022-07-31T09:42:16.732Z,0.3
2022-07-31T09:43:14.284Z,0.1
2022-07-31T09:44:25.443Z,0.2
2022-07-31T09:45:34.793Z,0.1
2022-07-31T09:46:43.591Z,0.3
2022-07-31T09:47:52.379Z,0.4
2022-07-31T09:49:02.122Z,0.2
2022-07-31T09:50:10.974Z,0.3
2022-07-31T09:51:20.823Z,0.3
2022-07-31T09:52:30.652Z,0.3
2022-07-31T09:53:43.314Z,0.4
2022-07-31T09:54:51.411Z,0.1
2022-07-31T09:56:01.187Z,0.2
2022-07-31T09:57:11.129Z,0.3
2022-07-31T09:58:20.924Z,0.1
2022-07-31T09:59:30.732Z,0.2
2022-07-31T10:00:40.620Z,0.3
2022-07-31T10:01:50.316Z,0.1
2022-07-31T10:02:59.065Z,0.1
2022-07-31T10:04:08.928Z,0.2
2022-07-31T10:05:18.759Z,0.2
2022-07-31T10:06:28.596Z,0.2
2022-07-31T10:07:38.368Z,0.3
2022-07-31T10:08:47.121Z,0.3
2022-07-31T10:09:57.035Z,0.2
2022-07-31T10:11:06.833Z,0.3
2022-07-31T10:12:17.599Z,0.2
2022-07-31T10:13:27.319Z,0.3
2022-07-31T10:14:37.122Z,0.3
2022-07-31T10:15:46.012Z,0.1
2022-07-31T10:16:55.750Z,0.2
2022-07-31T10:18:05.539Z,0.2
2022-07-31T10:19:14.349Z,0.2
2022-07-31T10:20:24.197Z,0.3
2022-07-31T10:21:33.954Z,0.2
2022-07-31T10:22:43.727Z,0.1
2022-07-31T10:23:52.542Z,0.4
2022-07-31T10:25:02.308Z,0.3
2022-07-31T10:26:12.058Z,0.2
2022-07-31T10:27:20.909Z,0.1
2022-07-31T10:28:29.660Z,0.2
2022-07-31T10:29:39.622Z,0.2
2022-07-31T10:30:49.240Z,0.3
2022-07-31T10:31:59.020Z,0.3
2022-07-31T10:33:28.108Z,0.5
2022-07-31T10:34:19.577Z,0.3
2022-07-31T10:35:29.323Z,0.3
2022-07-31T10:36:39.130Z,0.5
2022-07-31T10:37:48.921Z,0.3
2022-07-31T10:38:57.705Z,0.4
2022-07-31T10:40:06.547Z,0.2
2022-07-31T10:41:16.358Z,0.2
2022-07-31T10:42:26.115Z,0.1
2022-07-31T10:43:34.913Z,0.2
2022-07-31T10:44:44.706Z,0.1
2022-07-31T10:45:52.469Z,0.1
2022-07-31T10:47:00.239Z,0.5
2022-07-31T10:48:09.998Z,0.3
2022-07-31T10:49:18.764Z,0.2
2022-07-31T10:50:26.434Z,0.1
2022-07-31T10:51:36.181Z,0.1
2022-07-31T10:52:44.984Z,0.4
2022-07-31T10:53:55.291Z,0.3
2022-07-31T10:55:04.318Z,0.1
2022-07-31T10:56:12.035Z,0.1
2022-07-31T10:57:21.753Z,0.3
2022-07-31T10:58:31.564Z,0.1
2022-07-31T10:59:44.558Z,0.4
2022-07-31T11:00:52.134Z,0.2
2022-07-31T11:02:01.008Z,0.4
2022-07-31T11:03:11.947Z,0.2
2022-07-31T11:04:20.321Z,0.2
2022-07-31T11:05:29.046Z,0.2
2022-07-31T11:06:38.730Z,0.3
2022-07-31T11:07:48.483Z,0.2
2022-07-31T11:08:57.238Z,0.4
2022-07-31T11:10:07.094Z,0
2022-07-31T11:11:16.934Z,0.2
2022-07-31T11:12:26.695Z,0.1
2022-07-31T11:13:37.152Z,0.2
2022-07-31T11:14:45.200Z,0.2
2022-07-31T11:15:55.927Z,0.2
2022-07-31T11:17:07.002Z,0.2
2022-07-31T11:18:23.911Z,0.2
2022-07-31T11:19:27.162Z,0.2
2022-07-31T11:20:36.854Z,0.3
2022-07-31T11:21:46.557Z,0.2
2022-07-31T11:22:56.260Z,0.1
2022-07-31T11:24:08.732Z,0.2
2022-07-31T11:25:16.679Z,0.4
2022-07-31T11:26:32.367Z,0.1
2022-07-31T11:27:34.985Z,0.2
2022-07-31T11:28:44.708Z,0.1
2022-07-31T11:29:58.112Z,0.1
2022-07-31T11:31:04.179Z,0.1
2022-07-31T11:32:13.968Z,0.2
2022-07-31T11:33:23.695Z,0.2
2022-07-31T11:34:33.423Z,0.2
2022-07-31T11:35:42.183Z,0.2
2022-07-31T11:36:51.950Z,0.1
2022-07-31T11:38:01.682Z,0.1
2022-07-31T11:39:11.399Z,0.3
2022-07-31T11:40:22.380Z,0.3
2022-07-31T11:41:38.097Z,0.3
2022-07-31T11:42:41.719Z,0.3
2022-07-31T11:43:49.415Z,0.2
2022-07-31T11:44:58.090Z,0.2
2022-07-31T11:46:08.213Z,0.3
2022-07-31T11:48:10.650Z,0.3
2022-07-31T11:48:43.589Z,0.1
2022-07-31T11:49:49.968Z,0.1
2022-07-31T11:50:59.704Z,0.3
2022-07-31T11:52:08.432Z,0.2
2022-07-31T11:53:18.213Z,0.2
2022-07-31T11:54:27.922Z,0.1
2022-07-31T11:55:36.600Z,0.2
2022-07-31T11:56:45.264Z,0.3
2022-07-31T11:57:54.968Z,0.1
2022-07-31T11:59:03.762Z,0.2
2022-07-31T12:00:23.224Z,0.2
2022-07-31T12:01:25.262Z,0
2022-07-31T12:02:34.059Z,0.1
2022-07-31T12:03:43.787Z,0.1
2022-07-31T12:04:51.514Z,0
2022-07-31T12:06:00.274Z,0.2
2022-07-31T12:07:09.981Z,0.1
2022-07-31T12:08:19.723Z,0.2
2022-07-31T12:10:01.690Z,0.1
2022-07-31T12:10:39.362Z,0.2
2022-07-31T12:11:48.142Z,0.2
2022-07-31T12:12:57.956Z,0.2
2022-07-31T12:14:05.675Z,0.2
2022-07-31T12:15:14.363Z,0.2
2022-07-31T12:16:24.068Z,0.1
2022-07-31T12:17:31.753Z,0.3
2022-07-31T12:18:41.540Z,0.2
2022-07-31T12:19:52.049Z,0.2
2022-07-31T12:21:01.088Z,0.3
2022-07-31T12:22:10.845Z,0.2
2022-07-31T12:23:38.864Z,0.2
2022-07-31T12:24:31.495Z,0.1
2022-07-31T12:25:41.348Z,0.2
2022-07-31T12:26:50.109Z,0.2
2022-07-31T12:27:59.927Z,0.3
2022-07-31T12:29:08.885Z,0.1
2022-07-31T12:30:18.675Z,0.4
2022-07-31T12:31:28.423Z,0.1
2022-07-31T12:32:38.143Z,0.2
2022-07-31T12:33:46.859Z,0.3
2022-07-31T12:34:56.657Z,0.2
2022-07-31T12:36:04.359Z,0.2
2022-07-31T12:37:15.079Z,0.2
2022-07-31T12:38:38.545Z,0.1
2022-07-31T12:39:36.485Z,0.3
2022-07-31T12:40:46.489Z,0.3
2022-07-31T12:41:54.277Z,0.2
2022-07-31T12:43:04.013Z,0.4
2022-07-31T12:44:14.511Z,0.2
2022-07-31T12:45:24.372Z,0.3
2022-07-31T12:46:35.075Z,0.3
2022-07-31T12:47:44.873Z,0.3
2022-07-31T12:48:54.632Z,0.2
2022-07-31T12:50:04.339Z,0.3
2022-07-31T12:51:14.082Z,0.2
2022-07-31T12:52:22.916Z,0.2
2022-07-31T12:53:32.657Z,0.3
2022-07-31T12:54:42.357Z,0.4
2022-07-31T12:55:50.096Z,0.4
2022-07-31T12:56:59.808Z,0.2
2022-07-31T12:58:08.572Z,0.3
2022-07-31T12:59:18.373Z,0.1
2022-07-31T13:00:28.147Z,0.3
2022-07-31T13:01:37.067Z,0.3
2022-07-31T13:02:46.689Z,0.1
2022-07-31T13:03:56.426Z,0.1
2022-07-31T13:05:05.174Z,0.1
2022-07-31T13:06:14.898Z,0.2
2022-07-31T13:07:23.669Z,0.1
2022-07-31T13:08:33.747Z,0.5
2022-07-31T13:09:43.544Z,0.2
2022-07-31T13:10:54.304Z,0.2
2022-07-31T13:12:04.057Z,0.1
2022-07-31T13:13:13.856Z,0.2
2022-07-31T13:14:23.577Z,0.1
2022-07-31T13:15:33.558Z,0.2
2022-07-31T13:16:42.359Z,0.2
2022-07-31T13:17:52.084Z,0.2
2022-07-31T13:19:01.833Z,0.4
2022-07-31T13:20:16.640Z,0.3
2022-07-31T13:21:25.787Z,0.2
2022-07-31T13:22:40.988Z,0.2
2022-07-31T13:23:54.326Z,0.3
2022-07-31T13:25:01.254Z,0.3
2022-07-31T13:26:10.949Z,0.1
2022-07-31T13:27:19.798Z,0.2
2022-07-31T13:28:29.629Z,0.1
2022-07-31T13:29:39.372Z,0.2
2022-07-31T13:30:52.060Z,0.3
2022-07-31T13:31:58.865Z,0.3
2022-07-31T13:33:06.648Z,0.1
2022-07-31T13:34:16.356Z,0.3
2022-07-31T13:35:28.157Z,0.2
2022-07-31T13:36:39.111Z,0.1
2022-07-31T13:37:46.465Z,0.1
2022-07-31T13:38:56.295Z,0.1
2022-07-31T13:40:06.046Z,0.1
2022-07-31T13:41:15.759Z,0.1
2022-07-31T13:42:29.100Z,0.1
2022-07-31T13:43:35.262Z,0.2
2022-07-31T13:44:43.974Z,0.2
2022-07-31T13:45:52.711Z,0.2
2022-07-31T13:47:02.910Z,0.3
2022-07-31T13:48:12.201Z,0.1
2022-07-31T13:49:22.024Z,0.1
2022-07-31T13:50:30.671Z,0.1
2022-07-31T13:51:39.590Z,0.2
2022-07-31T13:52:49.274Z,0.1
2022-07-31T13:53:57.976Z,0.1
2022-07-31T13:55:07.660Z,0.1
2022-07-31T13:56:34.174Z,0.1
2022-07-31T13:57:27.168Z,0.2
2022-07-31T13:58:36.897Z,0.2
2022-07-31T13:59:45.647Z,0.1
2022-07-31T14:00:54.413Z,0.1
2022-07-31T14:02:05.699Z,0.1
2022-07-31T14:03:15.300Z,0.2
2022-07-31T14:04:24.551Z,0.1
2022-07-31T14:05:39.974Z,0.1
2022-07-31T14:06:43.915Z,0.2
2022-07-31T14:07:54.708Z,0
2022-07-31T14:09:04.361Z,0.1
2022-07-31T14:10:16.010Z,0
2022-07-31T14:11:23.805Z,0.2
2022-07-31T14:12:33.639Z,0.2
2022-07-31T14:13:43.394Z,0.1
2022-07-31T14:14:53.167Z,0.2
2022-07-31T14:16:00.858Z,0.2
2022-07-31T14:17:10.526Z,0.1
2022-07-31T14:18:20.283Z,0.1
2022-07-31T14:19:30.087Z,0.2
2022-07-31T14:20:40.813Z,0.1
2022-07-31T14:21:56.616Z,0
2022-07-31T14:23:01.252Z,0.2
2022-07-31T14:24:09.927Z,0.1
2022-07-31T14:25:18.633Z,0.1
2022-07-31T14:26:28.283Z,0.3
2022-07-31T14:27:36.945Z,0.1
2022-07-31T14:28:45.685Z,0.2
2022-07-31T14:29:55.551Z,0.1
2022-07-31T14:31:05.253Z,0.2
2022-07-31T14:32:13.961Z,0.1
2022-07-31T14:33:23.697Z,0.1
2022-07-31T14:34:35.602Z,0.1
2022-07-31T14:35:43.991Z,0.2
2022-07-31T14:36:52.717Z,0.2
2022-07-31T14:38:04.357Z,0.2
2022-07-31T14:39:13.194Z,0.3
2022-07-31T14:40:21.959Z,0.1
2022-07-31T14:41:31.710Z,0.2
2022-07-31T14:42:41.610Z,0.2
2022-07-31T14:43:51.308Z,0.1
2022-07-31T14:45:01.009Z,0.2
2022-07-31T14:46:09.794Z,0.2
2022-07-31T14:47:17.448Z,0
2022-07-31T14:48:26.121Z,0
2022-07-31T14:50:06.344Z,0.2
2022-07-31T14:50:44.461Z,0.1
2022-07-31T14:51:54.141Z,0.1
2022-07-31T14:53:02.794Z,0.2
2022-07-31T14:54:10.522Z,0.2
2022-07-31T14:55:20.194Z,0.2
2022-07-31T14:56:51.624Z,0.1
2022-07-31T14:57:39.618Z,0.2
2022-07-31T14:58:57.153Z,0.3
2022-07-31T14:59:59.062Z,0.1
2022-07-31T15:01:08.789Z,0.1
2022-07-31T15:02:21.604Z,0.1
2022-07-31T15:03:27.139Z,0.3
2022-07-31T15:04:37.013Z,0.3
2022-07-31T15:06:38.463Z,0.1
2022-07-31T15:07:12.914Z,0.1
2022-07-31T15:08:08.202Z,0
2022-07-31T15:09:18.603Z,0.2
2022-07-31T15:10:28.634Z,0.1
2022-07-31T15:11:57.465Z,0
2022-07-31T15:12:49.136Z,0.1
2022-07-31T15:13:58.878Z,0.2
2022-07-31T15:15:08.681Z,0.4
2022-07-31T15:16:18.456Z,0.1
2022-07-31T15:17:28.209Z,0.1
2022-07-31T15:18:37.969Z,0.2
2022-07-31T15:19:47.686Z,0.1
2022-07-31T15:20:56.486Z,0.2
2022-07-31T15:22:10.870Z,0.1
2022-07-31T15:23:16.951Z,0
2022-07-31T15:24:24.591Z,0.2
2022-07-31T15:25:33.252Z,0.1
2022-07-31T15:26:42.926Z,0.3
2022-07-31T15:27:51.616Z,0.1
2022-07-31T15:29:01.329Z,0.2
2022-07-31T15:30:11.076Z,0.3
2022-07-31T15:31:20.789Z,0.2
2022-07-31T15:32:30.519Z,0.2
2022-07-31T15:33:40.248Z,0.1
2022-07-31T15:34:48.930Z,0.2
2022-07-31T15:35:58.599Z,0.1
2022-07-31T15:37:07.572Z,0.1
2022-07-31T15:38:17.080Z,0.2
2022-07-31T15:39:25.804Z,0.2
2022-07-31T15:40:35.579Z,0.2
2022-07-31T15:41:45.296Z,0.2
2022-07-31T15:42:54.052Z,0.3
2022-07-31T15:44:03.825Z,0.3
2022-07-31T15:45:13.597Z,0.3
2022-07-31T15:46:23.487Z,0.2
2022-07-31T15:47:33.319Z,0.1
2022-07-31T15:48:43.066Z,0.3
2022-07-31T15:49:50.793Z,0.2
2022-07-31T15:51:00.506Z,0.1
2022-07-31T15:52:16.867Z,0.1
2022-07-31T15:53:19.005Z,0.3
2022-07-31T15:54:28.733Z,0.2
2022-07-31T15:55:36.438Z,0.3
2022-07-31T15:56:46.141Z,0.2
2022-07-31T15:57:54.885Z,0
2022-07-31T15:59:04.647Z,0.3
2022-07-31T16:00:14.397Z,0.2
2022-07-31T16:01:24.204Z,0.1